Portada
METAR-TAF:

METAR-TAF

Aeropuertos :

Paraguaná, Venezuela

Aeropuerto Internacional Josefa Camejo

latitud: 11-47N, longitud: 070-09W, altitud: 23 m

METAR: falta

Hora: 16:33 (20:33 UTC)

Pronóstico

El informe se hizo hace 4 horas y 33 minutos, a las 16:00 UTC
Pronóstico válido del 23 a las 18 UTC al 24 a las 18 UTC
Viento 15 kt del este con ráfagas de 20 kt
Visibilidad 10 km o más
Nubes dispersas a una altura de 1600 ft
Evolucionando progresivamente
del 23 a las 18 UTC al 23 a las 22 UTC
Viento 10 kt del este-noreste
Visibilidad: 9000 m
Cielo nuboso a una altura de 2000 ft
llovizna

TAF: SVJC 231600Z 2318/2418 10015G20KT 9999 SCT016 TX33/19Z TN24/08Z BECMG 2318/2322 07010KT 9000 DZ BKN020

Observaciones y pronósticos meteorológicos de más de 4000 aeropuertos (mensajes METAR y TAF).

Los puntos amarillos y rojos representan las estaciones disponibles.

Ponga el ratón en el punto deseado para ver el nombre de la estación.

Haga clic para ver las observaciones y los pronósticos meteorológicos.

Para cambiar el mapa : haga clic en los botones verdes con una cruz de color negro para hacer un zoom, en el botón verde con un guión para alejar o en las flechas verdes para mapas adyacentes.


METAR-TAF: